sensor_id;sensor_type;location;lat;lon;timestamp;P1;durP1;ratioP1;P2;durP2;ratioP2
51194;SDS011;37259;49.972;19.850;2022-10-12T00:00:48;17.3;;;26.4;;
51194;SDS011;37259;49.972;19.850;2022-10-12T00:01:48;17.9;;;24.9;;
51194;SDS011;37259;49.972;19.850;2022-10-12T00:02:48;17.9;;;24.9;;
51194;SDS011;37259;49.972;19.850;2022-10-12T00:03:48;17.9;;;24.9;;
51194;SDS011;37259;49.972;19.850;2022-10-12T00:04:48;17.9;;;24.9;;
51194;SDS011;37259;49.972;19.850;2022-10-12T00:05:58;17.9;;;24.9;;
51194;SDS011;37259;49.972;19.850;2022-10-12T00:06:48;17.9;;;24.9;;
51194;SDS011;37259;49.972;19.850;2022-10-12T00:07:48;17.9;;;24.9;;
51194;SDS011;37259;49.972;19.850;2022-10-12T00:08:49;17.9;;;24.9;;
51194;SDS011;37259;49.972;19.850;2022-10-12T00:09:48;17.9;;;24.9;;
51194;SDS011;37259;49.972;19.850;2022-10-12T00:10:48;17.9;;;24.9;;
51194;SDS011;37259;49.972;19.850;2022-10-12T00:11:48;17.9;;;24.9;;
51194;SDS011;37259;49.972;19.850;2022-10-12T00:12:48;17.9;;;24.9;;
51194;SDS011;37259;49.972;19.850;2022-10-12T00:13:48;17.9;;;24.9;;
51194;SDS011;37259;49.972;19.850;2022-10-12T00:14:48;17.9;;;24.9;;
51194;SDS011;37259;49.972;19.850;2022-10-12T00:15:48;17.9;;;24.9;;
51194;SDS011;37259;49.972;19.850;2022-10-12T00:16:48;17.9;;;24.9;;
51194;SDS011;37259;49.972;19.850;2022-10-12T00:17:48;17.9;;;24.9;;
51194;SDS011;37259;49.972;19.850;2022-10-12T00:18:48;17.9;;;24.9;;
51194;SDS011;37259;49.972;19.850;2022-10-12T00:19:48;17.9;;;24.9;;
51194;SDS011;37259;49.972;19.850;2022-10-12T00:20:48;17.9;;;24.9;;
51194;SDS011;37259;49.972;19.850;2022-10-12T00:21:48;17.9;;;24.9;;
51194;SDS011;37259;49.972;19.850;2022-10-12T00:22:48;17.9;;;24.9;;
51194;SDS011;37259;49.972;19.850;2022-10-12T00:23:48;17.9;;;24.9;;
51194;SDS011;37259;49.972;19.850;2022-10-12T00:24:48;17.9;;;24.9;;
51194;SDS011;37259;49.972;19.850;2022-10-12T00:25:48;17.9;;;24.9;;
51194;SDS011;37259;49.972;19.850;2022-10-12T00:26:48;17.9;;;24.9;;
51194;SDS011;37259;49.972;19.850;2022-10-12T00:27:48;17.9;;;24.9;;
51194;SDS011;37259;49.972;19.850;2022-10-12T00:28:50;17.9;;;24.9;;
51194;SDS011;37259;49.972;19.850;2022-10-12T00:29:48;17.9;;;24.9;;
51194;SDS011;37259;49.972;19.850;2022-10-12T00:30:48;17.9;;;24.9;;
51194;SDS011;37259;49.972;19.850;2022-10-12T00:31:48;15.7;;;24;;
51194;SDS011;37259;49.972;19.850;2022-10-12T00:32:48;15.7;;;24;;
51194;SDS011;37259;49.972;19.850;2022-10-12T00:33:48;15.7;;;24;;
51194;SDS011;37259;49.972;19.850;2022-10-12T00:34:48;15.7;;;24;;
51194;SDS011;37259;49.972;19.850;2022-10-12T00:35:48;15.7;;;24;;
51194;SDS011;37259;49.972;19.850;2022-10-12T00:36:48;15.7;;;24;;
51194;SDS011;37259;49.972;19.850;2022-10-12T00:37:52;15.7;;;24;;
51194;SDS011;37259;49.972;19.850;2022-10-12T00:38:49;15.7;;;24;;
51194;SDS011;37259;49.972;19.850;2022-10-12T00:39:48;15.7;;;24;;
51194;SDS011;37259;49.972;19.850;2022-10-12T00:40:48;15.7;;;24;;
51194;SDS011;37259;49.972;19.850;2022-10-12T00:41:48;15.7;;;24;;
51194;SDS011;37259;49.972;19.850;2022-10-12T00:42:48;15.7;;;24;;
51194;SDS011;37259;49.972;19.850;2022-10-12T00:43:48;15.7;;;24;;
51194;SDS011;37259;49.972;19.850;2022-10-12T00:44:50;15.7;;;24;;
51194;SDS011;37259;49.972;19.850;2022-10-12T00:45:48;15.7;;;24;;
51194;SDS011;37259;49.972;19.850;2022-10-12T00:46:48;15.7;;;24;;
51194;SDS011;37259;49.972;19.850;2022-10-12T00:47:48;15.7;;;24;;
51194;SDS011;37259;49.972;19.850;2022-10-12T00:48:49;15.7;;;24;;
51194;SDS011;37259;49.972;19.850;2022-10-12T00:49:49;15.7;;;24;;
51194;SDS011;37259;49.972;19.850;2022-10-12T00:50:48;15.7;;;24;;
51194;SDS011;37259;49.972;19.850;2022-10-12T00:51:50;15.7;;;24;;
51194;SDS011;37259;49.972;19.850;2022-10-12T00:52:49;15.7;;;24;;
51194;SDS011;37259;49.972;19.850;2022-10-12T00:53:49;15.7;;;24;;
51194;SDS011;37259;49.972;19.850;2022-10-12T00:54:48;15.7;;;24;;
51194;SDS011;37259;49.972;19.850;2022-10-12T00:55:48;15.7;;;24;;
51194;SDS011;37259;49.972;19.850;2022-10-12T00:56:48;15.7;;;24;;
51194;SDS011;37259;49.972;19.850;2022-10-12T00:57:48;15.7;;;24;;
51194;SDS011;37259;49.972;19.850;2022-10-12T00:58:48;15.7;;;24;;
51194;SDS011;37259;49.972;19.850;2022-10-12T00:59:48;15.7;;;24;;
51194;SDS011;37259;49.972;19.850;2022-10-12T01:00:48;15.7;;;24;;
51194;SDS011;37259;49.972;19.850;2022-10-12T01:01:48;15.1;;;25.1;;
51194;SDS011;37259;49.972;19.850;2022-10-12T01:02:49;15.1;;;25.1;;
51194;SDS011;37259;49.972;19.850;2022-10-12T01:03:48;15.1;;;25.1;;
51194;SDS011;37259;49.972;19.850;2022-10-12T01:04:48;15.1;;;25.1;;
51194;SDS011;37259;49.972;19.850;2022-10-12T01:05:48;15.1;;;25.1;;
51194;SDS011;37259;49.972;19.850;2022-10-12T01:06:48;15.1;;;25.1;;
51194;SDS011;37259;49.972;19.850;2022-10-12T01:07:48;15.1;;;25.1;;
51194;SDS011;37259;49.972;19.850;2022-10-12T01:08:48;15.1;;;25.1;;
51194;SDS011;37259;49.972;19.850;2022-10-12T01:09:48;15.1;;;25.1;;
51194;SDS011;37259;49.972;19.850;2022-10-12T01:10:48;15.1;;;25.1;;
51194;SDS011;37259;49.972;19.850;2022-10-12T01:11:48;15.1;;;25.1;;
51194;SDS011;37259;49.972;19.850;2022-10-12T01:12:48;15.1;;;25.1;;
51194;SDS011;37259;49.972;19.850;2022-10-12T01:13:48;15.1;;;25.1;;
51194;SDS011;37259;49.972;19.850;2022-10-12T01:14:48;15.1;;;25.1;;
51194;SDS011;37259;49.972;19.850;2022-10-12T01:15:49;15.1;;;25.1;;
51194;SDS011;37259;49.972;19.850;2022-10-12T01:16:49;15.1;;;25.1;;
51194;SDS011;37259;49.972;19.850;2022-10-12T01:17:50;15.1;;;25.1;;
51194;SDS011;37259;49.972;19.850;2022-10-12T01:18:49;15.1;;;25.1;;
51194;SDS011;37259;49.972;19.850;2022-10-12T01:19:57;15.1;;;25.1;;
51194;SDS011;37259;49.972;19.850;2022-10-12T01:20:53;15.1;;;25.1;;
51194;SDS011;37259;49.972;19.850;2022-10-12T01:21:49;15.1;;;25.1;;
51194;SDS011;37259;49.972;19.850;2022-10-12T01:22:50;15.1;;;25.1;;
51194;SDS011;37259;49.972;19.850;2022-10-12T01:24:00;15.1;;;25.1;;
51194;SDS011;37259;49.972;19.850;2022-10-12T01:24:50;15.1;;;25.1;;
51194;SDS011;37259;49.972;19.850;2022-10-12T01:25:52;15.1;;;25.1;;
51194;SDS011;37259;49.972;19.850;2022-10-12T01:26:56;15.1;;;25.1;;
51194;SDS011;37259;49.972;19.850;2022-10-12T01:27:48;15.1;;;25.1;;
51194;SDS011;37259;49.972;19.850;2022-10-12T01:28:49;15.1;;;25.1;;
51194;SDS011;37259;49.972;19.850;2022-10-12T01:30:00;15.1;;;25.1;;
51194;SDS011;37259;49.972;19.850;2022-10-12T01:30:49;15.1;;;25.1;;
51194;SDS011;37259;49.972;19.850;2022-10-12T01:31:48;14.9;;;21.3;;
51194;SDS011;37259;49.972;19.850;2022-10-12T01:32:53;14.9;;;21.3;;
51194;SDS011;37259;49.972;19.850;2022-10-12T01:33:49;14.9;;;21.3;;
51194;SDS011;37259;49.972;19.850;2022-10-12T01:34:50;14.9;;;21.3;;
51194;SDS011;37259;49.972;19.850;2022-10-12T01:35:51;14.9;;;21.3;;
51194;SDS011;37259;49.972;19.850;2022-10-12T01:36:49;14.9;;;21.3;;
51194;SDS011;37259;49.972;19.850;2022-10-12T01:37:50;14.9;;;21.3;;
51194;SDS011;37259;49.972;19.850;2022-10-12T01:38:50;14.9;;;21.3;;
51194;SDS011;37259;49.972;19.850;2022-10-12T01:39:48;14.9;;;21.3;;
51194;SDS011;37259;49.972;19.850;2022-10-12T01:40:49;14.9;;;21.3;;
51194;SDS011;37259;49.972;19.850;2022-10-12T01:41:49;14.9;;;21.3;;
51194;SDS011;37259;49.972;19.850;2022-10-12T01:42:48;14.9;;;21.3;;
51194;SDS011;37259;49.972;19.850;2022-10-12T01:43:49;14.9;;;21.3;;
51194;SDS011;37259;49.972;19.850;2022-10-12T01:44:48;14.9;;;21.3;;
51194;SDS011;37259;49.972;19.850;2022-10-12T01:45:48;14.9;;;21.3;;
51194;SDS011;37259;49.972;19.850;2022-10-12T01:46:48;14.9;;;21.3;;
51194;SDS011;37259;49.972;19.850;2022-10-12T01:47:48;14.9;;;21.3;;
51194;SDS011;37259;49.972;19.850;2022-10-12T01:48:49;14.9;;;21.3;;
51194;SDS011;37259;49.972;19.850;2022-10-12T01:49:48;14.9;;;21.3;;
51194;SDS011;37259;49.972;19.850;2022-10-12T01:50:48;14.9;;;21.3;;
51194;SDS011;37259;49.972;19.850;2022-10-12T01:51:53;14.9;;;21.3;;
51194;SDS011;37259;49.972;19.850;2022-10-12T01:52:51;14.9;;;21.3;;
51194;SDS011;37259;49.972;19.850;2022-10-12T01:53:48;14.9;;;21.3;;
51194;SDS011;37259;49.972;19.850;2022-10-12T01:54:52;14.9;;;21.3;;
51194;SDS011;37259;49.972;19.850;2022-10-12T01:55:48;14.9;;;21.3;;
51194;SDS011;37259;49.972;19.850;2022-10-12T01:56:51;14.9;;;21.3;;
51194;SDS011;37259;49.972;19.850;2022-10-12T01:57:52;14.9;;;21.3;;
51194;SDS011;37259;49.972;19.850;2022-10-12T01:58:51;14.9;;;21.3;;
51194;SDS011;37259;49.972;19.850;2022-10-12T01:59:50;14.9;;;21.3;;
51194;SDS011;37259;49.972;19.850;2022-10-12T02:00:56;12.5;;;19.9;;
51194;SDS011;37259;49.972;19.850;2022-10-12T02:01:49;12.5;;;19.9;;
51194;SDS011;37259;49.972;19.850;2022-10-12T02:02:51;12.5;;;19.9;;
51194;SDS011;37259;49.972;19.850;2022-10-12T02:03:49;12.5;;;19.9;;
51194;SDS011;37259;49.972;19.850;2022-10-12T02:04:48;12.5;;;19.9;;
51194;SDS011;37259;49.972;19.850;2022-10-12T02:05:49;12.5;;;19.9;;
51194;SDS011;37259;49.972;19.850;2022-10-12T02:06:48;12.5;;;19.9;;
51194;SDS011;37259;49.972;19.850;2022-10-12T02:07:48;12.5;;;19.9;;
51194;SDS011;37259;49.972;19.850;2022-10-12T02:08:49;12.5;;;19.9;;
51194;SDS011;37259;49.972;19.850;2022-10-12T02:09:48;12.5;;;19.9;;
51194;SDS011;37259;49.972;19.850;2022-10-12T02:10:49;12.5;;;19.9;;
51194;SDS011;37259;49.972;19.850;2022-10-12T02:11:49;12.5;;;19.9;;
51194;SDS011;37259;49.972;19.850;2022-10-12T02:12:48;12.5;;;19.9;;
51194;SDS011;37259;49.972;19.850;2022-10-12T02:13:49;12.5;;;19.9;;
51194;SDS011;37259;49.972;19.850;2022-10-12T02:14:48;12.5;;;19.9;;
51194;SDS011;37259;49.972;19.850;2022-10-12T02:15:48;12.5;;;19.9;;
51194;SDS011;37259;49.972;19.850;2022-10-12T02:16:48;12.5;;;19.9;;
51194;SDS011;37259;49.972;19.850;2022-10-12T02:17:48;12.5;;;19.9;;
51194;SDS011;37259;49.972;19.850;2022-10-12T02:18:48;12.5;;;19.9;;
51194;SDS011;37259;49.972;19.850;2022-10-12T02:19:49;12.5;;;19.9;;
51194;SDS011;37259;49.972;19.850;2022-10-12T02:20:49;12.5;;;19.9;;
51194;SDS011;37259;49.972;19.850;2022-10-12T02:21:48;12.5;;;19.9;;
51194;SDS011;37259;49.972;19.850;2022-10-12T02:22:48;12.5;;;19.9;;
51194;SDS011;37259;49.972;19.850;2022-10-12T02:23:48;12.5;;;19.9;;
51194;SDS011;37259;49.972;19.850;2022-10-12T02:24:48;12.5;;;19.9;;
51194;SDS011;37259;49.972;19.850;2022-10-12T02:25:48;12.5;;;19.9;;
51194;SDS011;37259;49.972;19.850;2022-10-12T02:26:49;12.5;;;19.9;;
51194;SDS011;37259;49.972;19.850;2022-10-12T02:27:48;12.5;;;19.9;;
51194;SDS011;37259;49.972;19.850;2022-10-12T02:28:48;12.5;;;19.9;;
51194;SDS011;37259;49.972;19.850;2022-10-12T02:29:48;12.5;;;19.9;;
51194;SDS011;37259;49.972;19.850;2022-10-12T02:30:49;12;;;19.6;;
51194;SDS011;37259;49.972;19.850;2022-10-12T02:31:50;12;;;19.6;;
51194;SDS011;37259;49.972;19.850;2022-10-12T02:32:49;12;;;19.6;;
51194;SDS011;37259;49.972;19.850;2022-10-12T02:33:50;12;;;19.6;;
51194;SDS011;37259;49.972;19.850;2022-10-12T02:34:49;12;;;19.6;;
51194;SDS011;37259;49.972;19.850;2022-10-12T02:35:49;12;;;19.6;;
51194;SDS011;37259;49.972;19.850;2022-10-12T02:36:49;12;;;19.6;;
51194;SDS011;37259;49.972;19.850;2022-10-12T02:37:49;12;;;19.6;;
51194;SDS011;37259;49.972;19.850;2022-10-12T02:38:50;12;;;19.6;;
51194;SDS011;37259;49.972;19.850;2022-10-12T02:39:49;12;;;19.6;;
51194;SDS011;37259;49.972;19.850;2022-10-12T02:40:49;12;;;19.6;;
51194;SDS011;37259;49.972;19.850;2022-10-12T02:41:48;12;;;19.6;;
51194;SDS011;37259;49.972;19.850;2022-10-12T02:42:49;12;;;19.6;;
51194;SDS011;37259;49.972;19.850;2022-10-12T02:43:49;12;;;19.6;;
51194;SDS011;37259;49.972;19.850;2022-10-12T02:44:48;12;;;19.6;;
51194;SDS011;37259;49.972;19.850;2022-10-12T02:45:48;12;;;19.6;;
51194;SDS011;37259;49.972;19.850;2022-10-12T02:46:48;12;;;19.6;;
51194;SDS011;37259;49.972;19.850;2022-10-12T02:47:48;12;;;19.6;;
51194;SDS011;37259;49.972;19.850;2022-10-12T02:48:48;12;;;19.6;;
51194;SDS011;37259;49.972;19.850;2022-10-12T02:49:48;12;;;19.6;;
51194;SDS011;37259;49.972;19.850;2022-10-12T02:50:49;12;;;19.6;;
51194;SDS011;37259;49.972;19.850;2022-10-12T02:51:48;12;;;19.6;;
51194;SDS011;37259;49.972;19.850;2022-10-12T02:52:48;12;;;19.6;;
51194;SDS011;37259;49.972;19.850;2022-10-12T02:53:48;12;;;19.6;;
51194;SDS011;37259;49.972;19.850;2022-10-12T02:54:48;12;;;19.6;;
51194;SDS011;37259;49.972;19.850;2022-10-12T02:55:48;12;;;19.6;;
51194;SDS011;37259;49.972;19.850;2022-10-12T02:56:48;12;;;19.6;;
51194;SDS011;37259;49.972;19.850;2022-10-12T02:57:48;12;;;19.6;;
51194;SDS011;37259;49.972;19.850;2022-10-12T02:58:48;12;;;19.6;;
51194;SDS011;37259;49.972;19.850;2022-10-12T02:59:48;12;;;19.6;;
51194;SDS011;37259;49.972;19.850;2022-10-12T03:00:48;13;;;19.5;;
51194;SDS011;37259;49.972;19.850;2022-10-12T03:01:48;13;;;19.5;;
51194;SDS011;37259;49.972;19.850;2022-10-12T03:02:48;13;;;19.5;;
51194;SDS011;37259;49.972;19.850;2022-10-12T03:03:48;13;;;19.5;;
51194;SDS011;37259;49.972;19.850;2022-10-12T03:04:48;13;;;19.5;;
51194;SDS011;37259;49.972;19.850;2022-10-12T03:05:48;13;;;19.5;;
51194;SDS011;37259;49.972;19.850;2022-10-12T03:06:48;13;;;19.5;;
51194;SDS011;37259;49.972;19.850;2022-10-12T03:07:48;13;;;19.5;;
51194;SDS011;37259;49.972;19.850;2022-10-12T03:08:48;13;;;19.5;;
51194;SDS011;37259;49.972;19.850;2022-10-12T03:09:48;13;;;19.5;;
51194;SDS011;37259;49.972;19.850;2022-10-12T03:10:48;13;;;19.5;;
51194;SDS011;37259;49.972;19.850;2022-10-12T03:11:48;13;;;19.5;;
51194;SDS011;37259;49.972;19.850;2022-10-12T03:12:48;13;;;19.5;;
51194;SDS011;37259;49.972;19.850;2022-10-12T03:13:50;13;;;19.5;;
51194;SDS011;37259;49.972;19.850;2022-10-12T03:14:48;13;;;19.5;;
51194;SDS011;37259;49.972;19.850;2022-10-12T03:15:48;13;;;19.5;;
51194;SDS011;37259;49.972;19.850;2022-10-12T03:16:48;13;;;19.5;;
51194;SDS011;37259;49.972;19.850;2022-10-12T03:17:48;13;;;19.5;;
51194;SDS011;37259;49.972;19.850;2022-10-12T03:18:48;13;;;19.5;;
51194;SDS011;37259;49.972;19.850;2022-10-12T03:19:48;13;;;19.5;;
51194;SDS011;37259;49.972;19.850;2022-10-12T03:20:48;13;;;19.5;;
51194;SDS011;37259;49.972;19.850;2022-10-12T03:21:48;13;;;19.5;;
51194;SDS011;37259;49.972;19.850;2022-10-12T03:22:48;13;;;19.5;;
51194;SDS011;37259;49.972;19.850;2022-10-12T03:23:48;13;;;19.5;;
51194;SDS011;37259;49.972;19.850;2022-10-12T03:24:48;13;;;19.5;;
51194;SDS011;37259;49.972;19.850;2022-10-12T03:25:48;13;;;19.5;;
51194;SDS011;37259;49.972;19.850;2022-10-12T03:26:48;13;;;19.5;;
51194;SDS011;37259;49.972;19.850;2022-10-12T03:27:48;13;;;19.5;;
51194;SDS011;37259;49.972;19.850;2022-10-12T03:28:48;13;;;19.5;;
51194;SDS011;37259;49.972;19.850;2022-10-12T03:29:48;13;;;19.5;;
51194;SDS011;37259;49.972;19.850;2022-10-12T03:30:48;10.7;;;16.6;;
51194;SDS011;37259;49.972;19.850;2022-10-12T03:31:48;10.7;;;16.6;;
51194;SDS011;37259;49.972;19.850;2022-10-12T03:32:48;10.7;;;16.6;;
51194;SDS011;37259;49.972;19.850;2022-10-12T03:33:48;10.7;;;16.6;;
51194;SDS011;37259;49.972;19.850;2022-10-12T03:34:48;10.7;;;16.6;;
51194;SDS011;37259;49.972;19.850;2022-10-12T03:35:48;10.7;;;16.6;;
51194;SDS011;37259;49.972;19.850;2022-10-12T03:36:48;10.7;;;16.6;;
51194;SDS011;37259;49.972;19.850;2022-10-12T03:37:48;10.7;;;16.6;;
51194;SDS011;37259;49.972;19.850;2022-10-12T03:38:48;10.7;;;16.6;;
51194;SDS011;37259;49.972;19.850;2022-10-12T03:39:48;10.7;;;16.6;;
51194;SDS011;37259;49.972;19.850;2022-10-12T03:40:48;10.7;;;16.6;;
51194;SDS011;37259;49.972;19.850;2022-10-12T03:41:48;10.7;;;16.6;;
51194;SDS011;37259;49.972;19.850;2022-10-12T03:42:48;10.7;;;16.6;;
51194;SDS011;37259;49.972;19.850;2022-10-12T03:43:48;10.7;;;16.6;;
51194;SDS011;37259;49.972;19.850;2022-10-12T03:44:48;10.7;;;16.6;;
51194;SDS011;37259;49.972;19.850;2022-10-12T03:45:48;10.7;;;16.6;;
51194;SDS011;37259;49.972;19.850;2022-10-12T03:46:48;10.7;;;16.6;;
51194;SDS011;37259;49.972;19.850;2022-10-12T03:47:48;10.7;;;16.6;;
51194;SDS011;37259;49.972;19.850;2022-10-12T03:48:48;10.7;;;16.6;;
51194;SDS011;37259;49.972;19.850;2022-10-12T03:49:48;10.7;;;16.6;;
51194;SDS011;37259;49.972;19.850;2022-10-12T03:50:48;10.7;;;16.6;;
51194;SDS011;37259;49.972;19.850;2022-10-12T03:51:48;10.7;;;16.6;;
51194;SDS011;37259;49.972;19.850;2022-10-12T03:52:48;10.7;;;16.6;;
51194;SDS011;37259;49.972;19.850;2022-10-12T03:53:48;10.7;;;16.6;;
51194;SDS011;37259;49.972;19.850;2022-10-12T03:54:48;10.7;;;16.6;;
51194;SDS011;37259;49.972;19.850;2022-10-12T03:55:48;10.7;;;16.6;;
51194;SDS011;37259;49.972;19.850;2022-10-12T03:56:48;10.7;;;16.6;;
51194;SDS011;37259;49.972;19.850;2022-10-12T03:57:48;10.7;;;16.6;;
51194;SDS011;37259;49.972;19.850;2022-10-12T03:58:48;10.7;;;16.6;;
51194;SDS011;37259;49.972;19.850;2022-10-12T03:59:48;10.7;;;16.6;;
51194;SDS011;37259;49.972;19.850;2022-10-12T04:00:50;11.6;;;19.3;;
51194;SDS011;37259;49.972;19.850;2022-10-12T04:01:48;11.6;;;19.3;;
51194;SDS011;37259;49.972;19.850;2022-10-12T04:02:48;11.6;;;19.3;;
51194;SDS011;37259;49.972;19.850;2022-10-12T04:03:48;11.6;;;19.3;;
51194;SDS011;37259;49.972;19.850;2022-10-12T04:04:48;11.6;;;19.3;;
51194;SDS011;37259;49.972;19.850;2022-10-12T04:05:51;11.6;;;19.3;;
51194;SDS011;37259;49.972;19.850;2022-10-12T04:06:48;11.6;;;19.3;;
51194;SDS011;37259;49.972;19.850;2022-10-12T04:07:48;11.6;;;19.3;;
51194;SDS011;37259;49.972;19.850;2022-10-12T04:08:48;11.6;;;19.3;;
51194;SDS011;37259;49.972;19.850;2022-10-12T04:09:48;11.6;;;19.3;;
51194;SDS011;37259;49.972;19.850;2022-10-12T04:10:48;11.6;;;19.3;;
51194;SDS011;37259;49.972;19.850;2022-10-12T04:11:48;11.6;;;19.3;;
51194;SDS011;37259;49.972;19.850;2022-10-12T04:12:48;11.6;;;19.3;;
51194;SDS011;37259;49.972;19.850;2022-10-12T04:13:48;11.6;;;19.3;;
51194;SDS011;37259;49.972;19.850;2022-10-12T04:14:48;11.6;;;19.3;;
51194;SDS011;37259;49.972;19.850;2022-10-12T04:15:48;11.6;;;19.3;;
51194;SDS011;37259;49.972;19.850;2022-10-12T04:16:48;11.6;;;19.3;;
51194;SDS011;37259;49.972;19.850;2022-10-12T04:17:48;11.6;;;19.3;;
51194;SDS011;37259;49.972;19.850;2022-10-12T04:18:48;11.6;;;19.3;;
51194;SDS011;37259;49.972;19.850;2022-10-12T04:19:48;11.6;;;19.3;;
51194;SDS011;37259;49.972;19.850;2022-10-12T04:20:48;11.6;;;19.3;;
51194;SDS011;37259;49.972;19.850;2022-10-12T04:21:48;11.6;;;19.3;;
51194;SDS011;37259;49.972;19.850;2022-10-12T04:22:48;11.6;;;19.3;;
51194;SDS011;37259;49.972;19.850;2022-10-12T04:23:48;11.6;;;19.3;;
51194;SDS011;37259;49.972;19.850;2022-10-12T04:24:48;11.6;;;19.3;;
51194;SDS011;37259;49.972;19.850;2022-10-12T04:25:48;11.6;;;19.3;;
51194;SDS011;37259;49.972;19.850;2022-10-12T04:26:48;11.6;;;19.3;;
51194;SDS011;37259;49.972;19.850;2022-10-12T04:27:48;11.6;;;19.3;;
51194;SDS011;37259;49.972;19.850;2022-10-12T04:28:48;11.6;;;19.3;;
51194;SDS011;37259;49.972;19.850;2022-10-12T04:29:48;11.6;;;19.3;;
51194;SDS011;37259;49.972;19.850;2022-10-12T04:30:48;10.5;;;17.8;;
51194;SDS011;37259;49.972;19.850;2022-10-12T04:31:48;10.5;;;17.8;;
51194;SDS011;37259;49.972;19.850;2022-10-12T04:32:48;10.5;;;17.8;;
51194;SDS011;37259;49.972;19.850;2022-10-12T04:33:51;10.5;;;17.8;;
51194;SDS011;37259;49.972;19.850;2022-10-12T04:34:48;10.5;;;17.8;;
51194;SDS011;37259;49.972;19.850;2022-10-12T04:35:48;10.5;;;17.8;;
51194;SDS011;37259;49.972;19.850;2022-10-12T04:36:48;10.5;;;17.8;;
51194;SDS011;37259;49.972;19.850;2022-10-12T04:37:48;10.5;;;17.8;;
51194;SDS011;37259;49.972;19.850;2022-10-12T04:38:48;10.5;;;17.8;;
51194;SDS011;37259;49.972;19.850;2022-10-12T04:39:48;10.5;;;17.8;;
51194;SDS011;37259;49.972;19.850;2022-10-12T04:40:48;10.5;;;17.8;;
51194;SDS011;37259;49.972;19.850;2022-10-12T04:41:48;10.5;;;17.8;;
51194;SDS011;37259;49.972;19.850;2022-10-12T04:42:48;10.5;;;17.8;;
51194;SDS011;37259;49.972;19.850;2022-10-12T04:43:48;10.5;;;17.8;;
51194;SDS011;37259;49.972;19.850;2022-10-12T04:44:48;10.5;;;17.8;;
51194;SDS011;37259;49.972;19.850;2022-10-12T04:45:52;10.5;;;17.8;;
51194;SDS011;37259;49.972;19.850;2022-10-12T04:46:48;10.5;;;17.8;;
51194;SDS011;37259;49.972;19.850;2022-10-12T04:47:48;10.5;;;17.8;;
51194;SDS011;37259;49.972;19.850;2022-10-12T04:48:48;10.5;;;17.8;;
51194;SDS011;37259;49.972;19.850;2022-10-12T04:49:48;10.5;;;17.8;;
51194;SDS011;37259;49.972;19.850;2022-10-12T04:50:48;10.5;;;17.8;;
51194;SDS011;37259;49.972;19.850;2022-10-12T04:51:48;10.5;;;17.8;;
51194;SDS011;37259;49.972;19.850;2022-10-12T04:52:48;10.5;;;17.8;;
51194;SDS011;37259;49.972;19.850;2022-10-12T04:53:48;10.5;;;17.8;;
51194;SDS011;37259;49.972;19.850;2022-10-12T04:54:48;10.5;;;17.8;;
51194;SDS011;37259;49.972;19.850;2022-10-12T04:55:48;10.5;;;17.8;;
51194;SDS011;37259;49.972;19.850;2022-10-12T04:56:48;10.5;;;17.8;;
51194;SDS011;37259;49.972;19.850;2022-10-12T04:57:48;10.5;;;17.8;;
51194;SDS011;37259;49.972;19.850;2022-10-12T04:58:48;10.5;;;17.8;;
51194;SDS011;37259;49.972;19.850;2022-10-12T04:59:48;10.5;;;17.8;;
51194;SDS011;37259;49.972;19.850;2022-10-12T05:00:48;11.8;;;20.9;;
51194;SDS011;37259;49.972;19.850;2022-10-12T05:01:48;11.8;;;20.9;;
51194;SDS011;37259;49.972;19.850;2022-10-12T05:02:48;11.8;;;20.9;;
51194;SDS011;37259;49.972;19.850;2022-10-12T05:03:48;11.8;;;20.9;;
51194;SDS011;37259;49.972;19.850;2022-10-12T05:04:48;11.8;;;20.9;;
51194;SDS011;37259;49.972;19.850;2022-10-12T05:05:48;11.8;;;20.9;;
51194;SDS011;37259;49.972;19.850;2022-10-12T05:06:48;11.8;;;20.9;;
51194;SDS011;37259;49.972;19.850;2022-10-12T05:07:48;11.8;;;20.9;;
51194;SDS011;37259;49.972;19.850;2022-10-12T05:08:48;11.8;;;20.9;;
51194;SDS011;37259;49.972;19.850;2022-10-12T05:09:48;11.8;;;20.9;;
51194;SDS011;37259;49.972;19.850;2022-10-12T05:10:48;11.8;;;20.9;;
51194;SDS011;37259;49.972;19.850;2022-10-12T05:11:48;11.8;;;20.9;;
51194;SDS011;37259;49.972;19.850;2022-10-12T05:12:48;11.8;;;20.9;;
51194;SDS011;37259;49.972;19.850;2022-10-12T05:13:48;11.8;;;20.9;;
51194;SDS011;37259;49.972;19.850;2022-10-12T05:14:48;11.8;;;20.9;;
51194;SDS011;37259;49.972;19.850;2022-10-12T05:15:48;11.8;;;20.9;;
51194;SDS011;37259;49.972;19.850;2022-10-12T05:16:48;11.8;;;20.9;;
51194;SDS011;37259;49.972;19.850;2022-10-12T05:17:48;11.8;;;20.9;;
51194;SDS011;37259;49.972;19.850;2022-10-12T05:18:48;11.8;;;20.9;;
51194;SDS011;37259;49.972;19.850;2022-10-12T05:19:48;11.8;;;20.9;;
51194;SDS011;37259;49.972;19.850;2022-10-12T05:20:48;11.8;;;20.9;;
51194;SDS011;37259;49.972;19.850;2022-10-12T05:21:48;11.8;;;20.9;;
51194;SDS011;37259;49.972;19.850;2022-10-12T05:22:48;11.8;;;20.9;;
51194;SDS011;37259;49.972;19.850;2022-10-12T05:23:48;11.8;;;20.9;;
51194;SDS011;37259;49.972;19.850;2022-10-12T05:24:48;11.8;;;20.9;;
51194;SDS011;37259;49.972;19.850;2022-10-12T05:25:48;11.8;;;20.9;;
51194;SDS011;37259;49.972;19.850;2022-10-12T05:26:48;11.8;;;20.9;;
51194;SDS011;37259;49.972;19.850;2022-10-12T05:27:48;11.8;;;20.9;;
51194;SDS011;37259;49.972;19.850;2022-10-12T05:28:48;11.8;;;20.9;;
51194;SDS011;37259;49.972;19.850;2022-10-12T05:29:48;11.8;;;20.9;;
51194;SDS011;37259;49.972;19.850;2022-10-12T05:30:48;10.9;;;19.1;;
51194;SDS011;37259;49.972;19.850;2022-10-12T05:31:48;10.9;;;19.1;;
51194;SDS011;37259;49.972;19.850;2022-10-12T05:32:48;10.9;;;19.1;;
51194;SDS011;37259;49.972;19.850;2022-10-12T05:33:48;10.9;;;19.1;;
51194;SDS011;37259;49.972;19.850;2022-10-12T05:34:48;10.9;;;19.1;;
51194;SDS011;37259;49.972;19.850;2022-10-12T05:35:48;10.9;;;19.1;;
51194;SDS011;37259;49.972;19.850;2022-10-12T05:36:48;10.9;;;19.1;;
51194;SDS011;37259;49.972;19.850;2022-10-12T05:37:48;10.9;;;19.1;;
51194;SDS011;37259;49.972;19.850;2022-10-12T05:38:48;10.9;;;19.1;;
51194;SDS011;37259;49.972;19.850;2022-10-12T05:39:48;10.9;;;19.1;;
51194;SDS011;37259;49.972;19.850;2022-10-12T05:40:48;10.9;;;19.1;;
51194;SDS011;37259;49.972;19.850;2022-10-12T05:41:48;10.9;;;19.1;;
51194;SDS011;37259;49.972;19.850;2022-10-12T05:42:48;10.9;;;19.1;;
51194;SDS011;37259;49.972;19.850;2022-10-12T05:43:48;10.9;;;19.1;;
51194;SDS011;37259;49.972;19.850;2022-10-12T05:44:48;10.9;;;19.1;;
51194;SDS011;37259;49.972;19.850;2022-10-12T05:45:48;10.9;;;19.1;;
51194;SDS011;37259;49.972;19.850;2022-10-12T05:46:48;10.9;;;19.1;;
51194;SDS011;37259;49.972;19.850;2022-10-12T05:47:48;10.9;;;19.1;;
51194;SDS011;37259;49.972;19.850;2022-10-12T05:48:48;10.9;;;19.1;;
51194;SDS011;37259;49.972;19.850;2022-10-12T05:49:48;10.9;;;19.1;;
51194;SDS011;37259;49.972;19.850;2022-10-12T05:50:50;10.9;;;19.1;;
51194;SDS011;37259;49.972;19.850;2022-10-12T05:51:48;10.9;;;19.1;;
51194;SDS011;37259;49.972;19.850;2022-10-12T05:52:48;10.9;;;19.1;;
51194;SDS011;37259;49.972;19.850;2022-10-12T05:53:48;10.9;;;19.1;;
51194;SDS011;37259;49.972;19.850;2022-10-12T05:54:48;10.9;;;19.1;;
51194;SDS011;37259;49.972;19.850;2022-10-12T05:55:51;10.9;;;19.1;;
51194;SDS011;37259;49.972;19.850;2022-10-12T05:56:48;10.9;;;19.1;;
51194;SDS011;37259;49.972;19.850;2022-10-12T05:57:48;10.9;;;19.1;;
51194;SDS011;37259;49.972;19.850;2022-10-12T05:58:48;10.9;;;19.1;;